UAM weather

Andersen Air Force Base
Yigo, Mariana Island, Guam

Public forecast

Using degrees Celsius for public forecast. Weather courtesy of forecast.io.

METAR (pilot weather report)

Retrieved 2019/03/19 07:57 UTC (5 minutes ago):

PGUA 190757Z 07014KT 10SM FEW019 27/22 A2987 RMK AO2A SLPNO T02650215 $

TAF (pilot weather forecast)

Retrieved 2019/03/19 02:26 UTC (6 hours ago):

TAF PGUA 190200Z 1902/2008 06015G20KT 9000 -SHRA BKN020 BKN050 QNH2988INS BECMG 1907/1908 07012G18KT 9999 NSW SCT020 BKN050 BKN120 QNH2985INS TX31/1905Z TN24/1917Z